sensor_id;sensor_type;location;lat;lon;timestamp;P1;durP1;ratioP1;P2;durP2;ratioP2
3777;SDS011;1904;50.076;8.660;2022-07-06T00:01:37;2.40;;;2.30;;
3777;SDS011;1904;50.076;8.660;2022-07-06T00:04:03;4.90;;;2.50;;
3777;SDS011;1904;50.076;8.660;2022-07-06T00:06:29;4.50;;;2.43;;
3777;SDS011;1904;50.076;8.660;2022-07-06T00:08:57;2.90;;;2.53;;
3777;SDS011;1904;50.076;8.660;2022-07-06T00:21:12;4.93;;;2.60;;
3777;SDS011;1904;50.076;8.660;2022-07-06T00:30:14;5.90;;;2.70;;
3777;SDS011;1904;50.076;8.660;2022-07-06T00:35:49;4.00;;;2.80;;
3777;SDS011;1904;50.076;8.660;2022-07-06T00:41:37;3.90;;;3.07;;
3777;SDS011;1904;50.076;8.660;2022-07-06T00:44:06;2.60;;;2.40;;
3777;SDS011;1904;50.076;8.660;2022-07-06T00:46:33;4.87;;;2.87;;
3777;SDS011;1904;50.076;8.660;2022-07-06T00:49:03;7.03;;;2.60;;
3777;SDS011;1904;50.076;8.660;2022-07-06T00:51:39;4.93;;;2.53;;
3777;SDS011;1904;50.076;8.660;2022-07-06T00:54:21;7.00;;;2.67;;
3777;SDS011;1904;50.076;8.660;2022-07-06T00:59:35;5.30;;;2.80;;
3777;SDS011;1904;50.076;8.660;2022-07-06T01:02:09;2.67;;;2.47;;
3777;SDS011;1904;50.076;8.660;2022-07-06T01:04:35;8.80;;;3.50;;
3777;SDS011;1904;50.076;8.660;2022-07-06T01:07:01;3.13;;;2.90;;
3777;SDS011;1904;50.076;8.660;2022-07-06T01:09:27;3.13;;;2.83;;
3777;SDS011;1904;50.076;8.660;2022-07-06T01:12:03;4.40;;;3.30;;
3777;SDS011;1904;50.076;8.660;2022-07-06T01:14:30;6.30;;;2.63;;
3777;SDS011;1904;50.076;8.660;2022-07-06T01:16:57;3.50;;;3.10;;
3777;SDS011;1904;50.076;8.660;2022-07-06T01:19:22;6.97;;;2.80;;
3777;SDS011;1904;50.076;8.660;2022-07-06T01:21:51;7.00;;;3.20;;
3777;SDS011;1904;50.076;8.660;2022-07-06T01:24:28;5.13;;;3.10;;
3777;SDS011;1904;50.076;8.660;2022-07-06T01:27:09;5.90;;;2.90;;
3777;SDS011;1904;50.076;8.660;2022-07-06T01:29:35;5.00;;;2.93;;
3777;SDS011;1904;50.076;8.660;2022-07-06T01:32:01;4.70;;;2.80;;
3777;SDS011;1904;50.076;8.660;2022-07-06T01:37:49;4.20;;;2.90;;
3777;SDS011;1904;50.076;8.660;2022-07-06T01:40:16;7.67;;;2.90;;
3777;SDS011;1904;50.076;8.660;2022-07-06T01:42:45;5.13;;;2.67;;
3777;SDS011;1904;50.076;8.660;2022-07-06T01:45:16;5.00;;;3.00;;
3777;SDS011;1904;50.076;8.660;2022-07-06T01:47:41;3.20;;;2.90;;
3777;SDS011;1904;50.076;8.660;2022-07-06T01:50:09;2.90;;;2.60;;
3777;SDS011;1904;50.076;8.660;2022-07-06T01:52:40;3.90;;;2.83;;
3777;SDS011;1904;50.076;8.660;2022-07-06T01:55:06;5.30;;;2.77;;
3777;SDS011;1904;50.076;8.660;2022-07-06T01:57:32;6.57;;;2.47;;
3777;SDS011;1904;50.076;8.660;2022-07-06T01:59:57;7.70;;;3.00;;
3777;SDS011;1904;50.076;8.660;2022-07-06T02:02:28;6.20;;;2.90;;
3777;SDS011;1904;50.076;8.660;2022-07-06T02:04:58;3.90;;;2.30;;
3777;SDS011;1904;50.076;8.660;2022-07-06T02:07:28;6.17;;;2.57;;
3777;SDS011;1904;50.076;8.660;2022-07-06T02:09:57;2.90;;;2.70;;
3777;SDS011;1904;50.076;8.660;2022-07-06T02:12:27;3.60;;;2.33;;
3777;SDS011;1904;50.076;8.660;2022-07-06T02:14:58;5.23;;;2.40;;
3777;SDS011;1904;50.076;8.660;2022-07-06T02:17:23;3.10;;;2.50;;
3777;SDS011;1904;50.076;8.660;2022-07-06T02:19:49;9.13;;;2.57;;
3777;SDS011;1904;50.076;8.660;2022-07-06T02:22:28;3.10;;;2.90;;
3777;SDS011;1904;50.076;8.660;2022-07-06T02:24:53;5.67;;;2.40;;
3777;SDS011;1904;50.076;8.660;2022-07-06T02:27:22;3.10;;;2.40;;
3777;SDS011;1904;50.076;8.660;2022-07-06T02:29:47;2.60;;;2.40;;
3777;SDS011;1904;50.076;8.660;2022-07-06T02:32:13;4.10;;;2.70;;
3777;SDS011;1904;50.076;8.660;2022-07-06T02:34:39;4.20;;;2.63;;
3777;SDS011;1904;50.076;8.660;2022-07-06T02:37:04;4.20;;;2.60;;
3777;SDS011;1904;50.076;8.660;2022-07-06T02:39:33;5.80;;;3.00;;
3777;SDS011;1904;50.076;8.660;2022-07-06T02:42:03;6.30;;;2.77;;
3777;SDS011;1904;50.076;8.660;2022-07-06T02:44:34;5.97;;;2.77;;
3777;SDS011;1904;50.076;8.660;2022-07-06T02:46:59;4.90;;;2.40;;
3777;SDS011;1904;50.076;8.660;2022-07-06T02:49:28;2.97;;;2.70;;
3777;SDS011;1904;50.076;8.660;2022-07-06T02:51:53;5.07;;;2.97;;
3777;SDS011;1904;50.076;8.660;2022-07-06T02:54:28;6.70;;;3.00;;
3777;SDS011;1904;50.076;8.660;2022-07-06T02:56:57;4.97;;;2.97;;
3777;SDS011;1904;50.076;8.660;2022-07-06T03:12:09;4.33;;;2.90;;
3777;SDS011;1904;50.076;8.660;2022-07-06T03:14:34;5.30;;;2.50;;
3777;SDS011;1904;50.076;8.660;2022-07-06T03:17:04;5.20;;;3.13;;
3777;SDS011;1904;50.076;8.660;2022-07-06T03:19:34;3.63;;;3.30;;
3777;SDS011;1904;50.076;8.660;2022-07-06T03:21:59;3.23;;;2.93;;
3777;SDS011;1904;50.076;8.660;2022-07-06T03:24:25;7.67;;;3.10;;
3777;SDS011;1904;50.076;8.660;2022-07-06T03:26:52;3.37;;;3.00;;
3777;SDS011;1904;50.076;8.660;2022-07-06T03:29:22;8.13;;;3.17;;
3777;SDS011;1904;50.076;8.660;2022-07-06T03:31:51;2.90;;;2.70;;
3777;SDS011;1904;50.076;8.660;2022-07-06T03:34:33;4.60;;;2.97;;
3777;SDS011;1904;50.076;8.660;2022-07-06T03:36:59;5.00;;;2.80;;
3777;SDS011;1904;50.076;8.660;2022-07-06T03:39:40;6.63;;;3.37;;
3777;SDS011;1904;50.076;8.660;2022-07-06T03:45:34;5.90;;;2.77;;
3777;SDS011;1904;50.076;8.660;2022-07-06T03:54:43;3.90;;;2.77;;
3777;SDS011;1904;50.076;8.660;2022-07-06T04:16:04;7.27;;;3.40;;
3777;SDS011;1904;50.076;8.660;2022-07-06T04:24:57;2.97;;;2.70;;
3777;SDS011;1904;50.076;8.660;2022-07-06T04:30:45;4.53;;;2.73;;
3777;SDS011;1904;50.076;8.660;2022-07-06T04:33:24;4.30;;;2.43;;
3777;SDS011;1904;50.076;8.660;2022-07-06T04:35:50;5.33;;;2.43;;
3777;SDS011;1904;50.076;8.660;2022-07-06T04:38:16;2.70;;;2.50;;
3777;SDS011;1904;50.076;8.660;2022-07-06T04:49:58;2.40;;;2.20;;
3777;SDS011;1904;50.076;8.660;2022-07-06T04:52:28;5.83;;;2.93;;
3777;SDS011;1904;50.076;8.660;2022-07-06T04:54:57;6.43;;;2.20;;
3777;SDS011;1904;50.076;8.660;2022-07-06T04:57:28;10.67;;;2.20;;
3777;SDS011;1904;50.076;8.660;2022-07-06T04:59:58;10.73;;;1.93;;
3777;SDS011;1904;50.076;8.660;2022-07-06T05:02:28;5.83;;;2.60;;
3777;SDS011;1904;50.076;8.660;2022-07-06T05:04:58;2.43;;;2.23;;
3777;SDS011;1904;50.076;8.660;2022-07-06T05:07:28;5.17;;;2.20;;
3777;SDS011;1904;50.076;8.660;2022-07-06T05:12:57;11.60;;;3.23;;
3777;SDS011;1904;50.076;8.660;2022-07-06T05:21:28;5.30;;;3.07;;
3777;SDS011;1904;50.076;8.660;2022-07-06T05:23:58;3.60;;;2.80;;
3777;SDS011;1904;50.076;8.660;2022-07-06T05:29:11;5.73;;;3.00;;
3777;SDS011;1904;50.076;8.660;2022-07-06T05:37:45;7.33;;;3.03;;
3777;SDS011;1904;50.076;8.660;2022-07-06T05:43:08;3.10;;;2.80;;
3777;SDS011;1904;50.076;8.660;2022-07-06T05:49:10;3.80;;;2.70;;
3777;SDS011;1904;50.076;8.660;2022-07-06T05:54:57;4.00;;;2.60;;
3777;SDS011;1904;50.076;8.660;2022-07-06T06:00:23;5.10;;;2.87;;
3777;SDS011;1904;50.076;8.660;2022-07-06T06:02:50;5.13;;;2.80;;
3777;SDS011;1904;50.076;8.660;2022-07-06T06:05:22;5.57;;;2.90;;
3777;SDS011;1904;50.076;8.660;2022-07-06T06:07:47;4.27;;;2.50;;
3777;SDS011;1904;50.076;8.660;2022-07-06T06:10:16;3.43;;;2.80;;
3777;SDS011;1904;50.076;8.660;2022-07-06T06:12:58;5.17;;;3.10;;
3777;SDS011;1904;50.076;8.660;2022-07-06T06:15:28;6.37;;;2.50;;
3777;SDS011;1904;50.076;8.660;2022-07-06T06:17:58;11.57;;;3.20;;
3777;SDS011;1904;50.076;8.660;2022-07-06T06:20:24;9.90;;;3.33;;
3777;SDS011;1904;50.076;8.660;2022-07-06T06:22:50;5.60;;;3.33;;
3777;SDS011;1904;50.076;8.660;2022-07-06T06:25:29;5.90;;;3.33;;
3777;SDS011;1904;50.076;8.660;2022-07-06T06:28:03;6.03;;;3.00;;
3777;SDS011;1904;50.076;8.660;2022-07-06T06:30:30;10.47;;;2.60;;
3777;SDS011;1904;50.076;8.660;2022-07-06T06:38:28;10.53;;;3.20;;
3777;SDS011;1904;50.076;8.660;2022-07-06T06:40:54;3.47;;;3.10;;
3777;SDS011;1904;50.076;8.660;2022-07-06T06:43:20;5.70;;;3.20;;
3777;SDS011;1904;50.076;8.660;2022-07-06T06:45:46;4.83;;;3.43;;
3777;SDS011;1904;50.076;8.660;2022-07-06T06:48:12;5.43;;;2.77;;
3777;SDS011;1904;50.076;8.660;2022-07-06T06:50:38;5.10;;;2.97;;
3777;SDS011;1904;50.076;8.660;2022-07-06T06:53:04;3.27;;;2.90;;
3777;SDS011;1904;50.076;8.660;2022-07-06T06:55:29;4.20;;;2.30;;
3777;SDS011;1904;50.076;8.660;2022-07-06T06:57:55;6.77;;;3.70;;
3777;SDS011;1904;50.076;8.660;2022-07-06T07:00:22;7.37;;;3.10;;
3777;SDS011;1904;50.076;8.660;2022-07-06T07:02:52;5.17;;;3.00;;
3777;SDS011;1904;50.076;8.660;2022-07-06T07:05:17;8.60;;;3.40;;
3777;SDS011;1904;50.076;8.660;2022-07-06T07:07:46;3.60;;;3.00;;
3777;SDS011;1904;50.076;8.660;2022-07-06T07:10:16;3.07;;;2.80;;
3777;SDS011;1904;50.076;8.660;2022-07-06T07:12:52;5.53;;;2.73;;
3777;SDS011;1904;50.076;8.660;2022-07-06T07:15:18;9.30;;;3.33;;
3777;SDS011;1904;50.076;8.660;2022-07-06T07:17:46;5.23;;;2.60;;
3777;SDS011;1904;50.076;8.660;2022-07-06T07:20:12;4.97;;;2.93;;
3777;SDS011;1904;50.076;8.660;2022-07-06T07:22:38;6.37;;;2.87;;
3777;SDS011;1904;50.076;8.660;2022-07-06T07:25:04;4.50;;;2.90;;
3777;SDS011;1904;50.076;8.660;2022-07-06T07:27:31;13.00;;;3.27;;
3777;SDS011;1904;50.076;8.660;2022-07-06T07:29:56;9.63;;;3.00;;
3777;SDS011;1904;50.076;8.660;2022-07-06T07:32:22;4.03;;;2.43;;
3777;SDS011;1904;50.076;8.660;2022-07-06T07:34:48;6.70;;;2.53;;
3777;SDS011;1904;50.076;8.660;2022-07-06T07:37:13;4.50;;;2.70;;
3777;SDS011;1904;50.076;8.660;2022-07-06T07:42:58;6.77;;;3.27;;
3777;SDS011;1904;50.076;8.660;2022-07-06T07:45:23;7.13;;;3.10;;
3777;SDS011;1904;50.076;8.660;2022-07-06T07:47:52;8.50;;;2.90;;
3777;SDS011;1904;50.076;8.660;2022-07-06T07:50:22;6.13;;;3.60;;
3777;SDS011;1904;50.076;8.660;2022-07-06T07:52:47;6.30;;;2.93;;
3777;SDS011;1904;50.076;8.660;2022-07-06T07:55:13;2.90;;;2.70;;
3777;SDS011;1904;50.076;8.660;2022-07-06T07:57:39;15.60;;;2.50;;
3777;SDS011;1904;50.076;8.660;2022-07-06T08:00:05;11.10;;;3.07;;
3777;SDS011;1904;50.076;8.660;2022-07-06T08:02:31;3.50;;;2.10;;
3777;SDS011;1904;50.076;8.660;2022-07-06T08:04:56;9.97;;;2.73;;
3777;SDS011;1904;50.076;8.660;2022-07-06T08:07:22;5.70;;;3.03;;
3777;SDS011;1904;50.076;8.660;2022-07-06T08:09:52;3.40;;;2.50;;
3777;SDS011;1904;50.076;8.660;2022-07-06T08:12:17;5.57;;;3.40;;
3777;SDS011;1904;50.076;8.660;2022-07-06T08:14:43;5.93;;;3.33;;
3777;SDS011;1904;50.076;8.660;2022-07-06T08:17:09;10.43;;;3.30;;
3777;SDS011;1904;50.076;8.660;2022-07-06T08:19:34;8.10;;;2.90;;
3777;SDS011;1904;50.076;8.660;2022-07-06T08:22:04;4.73;;;3.37;;
3777;SDS011;1904;50.076;8.660;2022-07-06T08:24:33;15.63;;;3.00;;
3777;SDS011;1904;50.076;8.660;2022-07-06T08:26:59;5.63;;;2.50;;
3777;SDS011;1904;50.076;8.660;2022-07-06T08:29:26;4.47;;;2.50;;
3777;SDS011;1904;50.076;8.660;2022-07-06T08:31:51;6.90;;;2.53;;
3777;SDS011;1904;50.076;8.660;2022-07-06T08:34:22;9.10;;;2.97;;
3777;SDS011;1904;50.076;8.660;2022-07-06T08:36:52;13.80;;;3.00;;
3777;SDS011;1904;50.076;8.660;2022-07-06T08:39:17;2.97;;;2.70;;
3777;SDS011;1904;50.076;8.660;2022-07-06T08:41:43;4.83;;;2.67;;
3777;SDS011;1904;50.076;8.660;2022-07-06T08:44:13;5.67;;;3.10;;
3777;SDS011;1904;50.076;8.660;2022-07-06T08:46:40;11.10;;;2.80;;
3777;SDS011;1904;50.076;8.660;2022-07-06T08:49:07;6.67;;;2.63;;
3777;SDS011;1904;50.076;8.660;2022-07-06T08:51:36;2.80;;;2.20;;
3777;SDS011;1904;50.076;8.660;2022-07-06T08:54:02;10.30;;;2.90;;
3777;SDS011;1904;50.076;8.660;2022-07-06T08:56:40;6.80;;;3.47;;
3777;SDS011;1904;50.076;8.660;2022-07-06T08:59:10;6.00;;;2.57;;
3777;SDS011;1904;50.076;8.660;2022-07-06T09:01:39;8.07;;;2.97;;
3777;SDS011;1904;50.076;8.660;2022-07-06T09:10:58;8.00;;;3.03;;
3777;SDS011;1904;50.076;8.660;2022-07-06T09:16:46;6.17;;;3.50;;
3777;SDS011;1904;50.076;8.660;2022-07-06T09:19:22;2.83;;;2.63;;
3777;SDS011;1904;50.076;8.660;2022-07-06T09:21:52;6.60;;;3.43;;
3777;SDS011;1904;50.076;8.660;2022-07-06T09:24:22;4.27;;;3.87;;
3777;SDS011;1904;50.076;8.660;2022-07-06T09:26:58;5.73;;;3.50;;
3777;SDS011;1904;50.076;8.660;2022-07-06T09:29:28;4.90;;;3.40;;
3777;SDS011;1904;50.076;8.660;2022-07-06T09:34:53;5.83;;;3.10;;
3777;SDS011;1904;50.076;8.660;2022-07-06T09:37:22;8.47;;;2.80;;
3777;SDS011;1904;50.076;8.660;2022-07-06T09:39:52;9.07;;;2.90;;
3777;SDS011;1904;50.076;8.660;2022-07-06T09:57:58;4.20;;;2.43;;
3777;SDS011;1904;50.076;8.660;2022-07-06T10:24:43;3.63;;;2.30;;
3777;SDS011;1904;50.076;8.660;2022-07-06T10:27:28;2.50;;;1.97;;
3777;SDS011;1904;50.076;8.660;2022-07-06T10:29:58;2.53;;;2.00;;
3777;SDS011;1904;50.076;8.660;2022-07-06T10:41:31;5.57;;;1.70;;
3777;SDS011;1904;50.076;8.660;2022-07-06T10:44:43;2.53;;;1.40;;
3777;SDS011;1904;50.076;8.660;2022-07-06T10:49:22;2.03;;;1.63;;
3777;SDS011;1904;50.076;8.660;2022-07-06T10:51:49;9.23;;;2.03;;
3777;SDS011;1904;50.076;8.660;2022-07-06T10:54:17;3.50;;;1.90;;
3777;SDS011;1904;50.076;8.660;2022-07-06T10:56:47;4.40;;;1.93;;
3777;SDS011;1904;50.076;8.660;2022-07-06T10:59:20;1.70;;;1.60;;
3777;SDS011;1904;50.076;8.660;2022-07-06T11:04:43;2.03;;;1.77;;
3777;SDS011;1904;50.076;8.660;2022-07-06T11:07:11;3.30;;;1.80;;
3777;SDS011;1904;50.076;8.660;2022-07-06T11:09:40;4.10;;;1.80;;
3777;SDS011;1904;50.076;8.660;2022-07-06T11:12:15;14.63;;;2.80;;
3777;SDS011;1904;50.076;8.660;2022-07-06T11:14:43;6.80;;;1.90;;
3777;SDS011;1904;50.076;8.660;2022-07-06T11:17:10;5.37;;;2.20;;
3777;SDS011;1904;50.076;8.660;2022-07-06T11:19:36;4.50;;;1.60;;
3777;SDS011;1904;50.076;8.660;2022-07-06T11:22:06;2.43;;;1.60;;
3777;SDS011;1904;50.076;8.660;2022-07-06T11:24:35;5.23;;;2.10;;
3777;SDS011;1904;50.076;8.660;2022-07-06T11:27:03;2.33;;;2.13;;
3777;SDS011;1904;50.076;8.660;2022-07-06T11:29:30;7.07;;;2.03;;
3777;SDS011;1904;50.076;8.660;2022-07-06T11:31:59;4.93;;;2.03;;
3777;SDS011;1904;50.076;8.660;2022-07-06T11:34:29;2.90;;;1.93;;
3777;SDS011;1904;50.076;8.660;2022-07-06T11:36:58;4.87;;;2.20;;
3777;SDS011;1904;50.076;8.660;2022-07-06T11:39:28;4.77;;;1.60;;
3777;SDS011;1904;50.076;8.660;2022-07-06T11:41:55;2.43;;;1.83;;
3777;SDS011;1904;50.076;8.660;2022-07-06T11:44:21;1.83;;;1.73;;
3777;SDS011;1904;50.076;8.660;2022-07-06T11:46:47;4.07;;;2.07;;
3777;SDS011;1904;50.076;8.660;2022-07-06T11:49:14;2.37;;;1.90;;
3777;SDS011;1904;50.076;8.660;2022-07-06T11:51:40;2.00;;;1.60;;
3777;SDS011;1904;50.076;8.660;2022-07-06T11:54:11;3.53;;;2.20;;
3777;SDS011;1904;50.076;8.660;2022-07-06T11:56:47;2.10;;;1.90;;
3777;SDS011;1904;50.076;8.660;2022-07-06T11:59:23;2.13;;;1.93;;
3777;SDS011;1904;50.076;8.660;2022-07-06T12:04:36;8.10;;;2.13;;
3777;SDS011;1904;50.076;8.660;2022-07-06T12:07:04;2.50;;;1.70;;
3777;SDS011;1904;50.076;8.660;2022-07-06T12:09:33;2.20;;;1.77;;
3777;SDS011;1904;50.076;8.660;2022-07-06T12:11:59;1.83;;;1.60;;
3777;SDS011;1904;50.076;8.660;2022-07-06T12:14:28;3.57;;;1.57;;
3777;SDS011;1904;50.076;8.660;2022-07-06T12:16:54;1.60;;;1.50;;
3777;SDS011;1904;50.076;8.660;2022-07-06T12:19:22;3.67;;;1.67;;
3777;SDS011;1904;50.076;8.660;2022-07-06T12:21:49;2.20;;;2.00;;
3777;SDS011;1904;50.076;8.660;2022-07-06T12:26:46;2.00;;;1.60;;
3777;SDS011;1904;50.076;8.660;2022-07-06T12:29:12;7.40;;;1.80;;
3777;SDS011;1904;50.076;8.660;2022-07-06T12:34:19;1.90;;;1.50;;
3777;SDS011;1904;50.076;8.660;2022-07-06T12:36:52;2.67;;;1.47;;
3777;SDS011;1904;50.076;8.660;2022-07-06T12:39:20;1.80;;;1.30;;
3777;SDS011;1904;50.076;8.660;2022-07-06T12:41:48;5.03;;;1.40;;
3777;SDS011;1904;50.076;8.660;2022-07-06T12:44:19;3.67;;;1.50;;
3777;SDS011;1904;50.076;8.660;2022-07-06T12:49:46;2.60;;;1.40;;
3777;SDS011;1904;50.076;8.660;2022-07-06T12:52:12;4.70;;;1.60;;
3777;SDS011;1904;50.076;8.660;2022-07-06T12:54:47;1.27;;;1.10;;
3777;SDS011;1904;50.076;8.660;2022-07-06T13:05:28;3.60;;;1.23;;
3777;SDS011;1904;50.076;8.660;2022-07-06T13:08:04;1.93;;;1.30;;
3777;SDS011;1904;50.076;8.660;2022-07-06T13:13:52;1.63;;;1.10;;
3777;SDS011;1904;50.076;8.660;2022-07-06T13:16:18;1.40;;;1.30;;
3777;SDS011;1904;50.076;8.660;2022-07-06T13:18:44;1.40;;;1.10;;
3777;SDS011;1904;50.076;8.660;2022-07-06T13:21:09;8.90;;;1.00;;
3777;SDS011;1904;50.076;8.660;2022-07-06T13:23:36;1.30;;;1.20;;
3777;SDS011;1904;50.076;8.660;2022-07-06T13:26:02;2.43;;;1.10;;
3777;SDS011;1904;50.076;8.660;2022-07-06T13:28:27;1.93;;;1.23;;
3777;SDS011;1904;50.076;8.660;2022-07-06T13:30:53;1.63;;;1.23;;
3777;SDS011;1904;50.076;8.660;2022-07-06T13:33:19;1.40;;;1.30;;
3777;SDS011;1904;50.076;8.660;2022-07-06T13:35:45;2.07;;;1.17;;
3777;SDS011;1904;50.076;8.660;2022-07-06T13:43:58;1.60;;;1.23;;
3777;SDS011;1904;50.076;8.660;2022-07-06T13:46:34;4.37;;;1.20;;
3777;SDS011;1904;50.076;8.660;2022-07-06T13:49:04;4.40;;;1.50;;
3777;SDS011;1904;50.076;8.660;2022-07-06T13:51:34;3.60;;;1.47;;
3777;SDS011;1904;50.076;8.660;2022-07-06T13:54:04;2.80;;;1.40;;
3777;SDS011;1904;50.076;8.660;2022-07-06T13:56:40;1.80;;;1.50;;
3777;SDS011;1904;50.076;8.660;2022-07-06T13:59:06;3.27;;;1.10;;
3777;SDS011;1904;50.076;8.660;2022-07-06T14:01:32;1.33;;;1.10;;
3777;SDS011;1904;50.076;8.660;2022-07-06T14:04:16;3.80;;;1.23;;
3777;SDS011;1904;50.076;8.660;2022-07-06T14:13:10;1.60;;;1.50;;
3777;SDS011;1904;50.076;8.660;2022-07-06T14:28:29;5.23;;;1.33;;
3777;SDS011;1904;50.076;8.660;2022-07-06T14:41:00;2.83;;;1.20;;
3777;SDS011;1904;50.076;8.660;2022-07-06T14:43:26;5.63;;;1.30;;
3777;SDS011;1904;50.076;8.660;2022-07-06T14:45:52;1.93;;;1.43;;
3777;SDS011;1904;50.076;8.660;2022-07-06T14:48:18;4.90;;;1.53;;
3777;SDS011;1904;50.076;8.660;2022-07-06T14:50:44;4.03;;;1.20;;
3777;SDS011;1904;50.076;8.660;2022-07-06T14:53:10;3.57;;;1.57;;
3777;SDS011;1904;50.076;8.660;2022-07-06T14:55:36;1.80;;;1.40;;
3777;SDS011;1904;50.076;8.660;2022-07-06T14:58:01;2.17;;;1.73;;
3777;SDS011;1904;50.076;8.660;2022-07-06T15:00:27;1.40;;;1.30;;
3777;SDS011;1904;50.076;8.660;2022-07-06T15:02:53;3.27;;;1.60;;
3777;SDS011;1904;50.076;8.660;2022-07-06T15:05:19;7.87;;;2.03;;
3777;SDS011;1904;50.076;8.660;2022-07-06T15:07:46;2.90;;;1.40;;
3777;SDS011;1904;50.076;8.660;2022-07-06T15:10:11;4.10;;;1.47;;
3777;SDS011;1904;50.076;8.660;2022-07-06T15:12:37;3.00;;;1.63;;
3777;SDS011;1904;50.076;8.660;2022-07-06T15:15:03;3.53;;;1.40;;
3777;SDS011;1904;50.076;8.660;2022-07-06T15:17:29;2.10;;;1.70;;
3777;SDS011;1904;50.076;8.660;2022-07-06T15:19:57;5.03;;;1.60;;
3777;SDS011;1904;50.076;8.660;2022-07-06T15:22:24;4.13;;;1.60;;
3777;SDS011;1904;50.076;8.660;2022-07-06T15:24:49;1.77;;;1.43;;
3777;SDS011;1904;50.076;8.660;2022-07-06T15:27:28;30.03;;;2.10;;
3777;SDS011;1904;50.076;8.660;2022-07-06T15:29:55;2.40;;;1.40;;
3777;SDS011;1904;50.076;8.660;2022-07-06T15:32:21;4.33;;;1.30;;
3777;SDS011;1904;50.076;8.660;2022-07-06T15:34:47;2.30;;;1.40;;
3777;SDS011;1904;50.076;8.660;2022-07-06T15:37:13;6.63;;;1.33;;
3777;SDS011;1904;50.076;8.660;2022-07-06T15:39:39;3.00;;;1.40;;
3777;SDS011;1904;50.076;8.660;2022-07-06T15:42:05;5.40;;;1.60;;
3777;SDS011;1904;50.076;8.660;2022-07-06T15:44:40;2.80;;;1.20;;
3777;SDS011;1904;50.076;8.660;2022-07-06T15:50:34;1.43;;;1.30;;
3777;SDS011;1904;50.076;8.660;2022-07-06T15:59:34;8.50;;;3.40;;
3777;SDS011;1904;50.076;8.660;2022-07-06T16:05:22;17.33;;;8.90;;
3777;SDS011;1904;50.076;8.660;2022-07-06T16:10:46;5.43;;;1.67;;
3777;SDS011;1904;50.076;8.660;2022-07-06T16:13:16;1.20;;;1.10;;
3777;SDS011;1904;50.076;8.660;2022-07-06T16:15:52;4.20;;;1.23;;
3777;SDS011;1904;50.076;8.660;2022-07-06T16:18:18;3.57;;;1.23;;
3777;SDS011;1904;50.076;8.660;2022-07-06T16:29:34;2.43;;;1.20;;
3777;SDS011;1904;50.076;8.660;2022-07-06T16:41:21;5.47;;;1.20;;
3777;SDS011;1904;50.076;8.660;2022-07-06T16:49:58;6.30;;;1.70;;
3777;SDS011;1904;50.076;8.660;2022-07-06T16:55:28;3.90;;;1.10;;
3777;SDS011;1904;50.076;8.660;2022-07-06T17:01:16;7.23;;;2.00;;
3777;SDS011;1904;50.076;8.660;2022-07-06T17:03:46;8.60;;;1.40;;
3777;SDS011;1904;50.076;8.660;2022-07-06T17:06:12;3.23;;;1.17;;
3777;SDS011;1904;50.076;8.660;2022-07-06T17:12:00;3.13;;;1.00;;
3777;SDS011;1904;50.076;8.660;2022-07-06T17:17:47;3.50;;;0.93;;
3777;SDS011;1904;50.076;8.660;2022-07-06T17:20:13;1.40;;;0.73;;
3777;SDS011;1904;50.076;8.660;2022-07-06T17:22:40;2.20;;;1.00;;
3777;SDS011;1904;50.076;8.660;2022-07-06T17:35:07;8.17;;;1.23;;
3777;SDS011;1904;50.076;8.660;2022-07-06T17:40:55;1.83;;;0.90;;
3777;SDS011;1904;50.076;8.660;2022-07-06T17:43:22;2.50;;;0.87;;
3777;SDS011;1904;50.076;8.660;2022-07-06T17:45:58;2.87;;;1.00;;
3777;SDS011;1904;50.076;8.660;2022-07-06T17:48:25;3.23;;;0.80;;
3777;SDS011;1904;50.076;8.660;2022-07-06T17:50:51;2.87;;;1.00;;
3777;SDS011;1904;50.076;8.660;2022-07-06T17:53:17;1.67;;;0.93;;
3777;SDS011;1904;50.076;8.660;2022-07-06T17:55:43;2.03;;;0.90;;
3777;SDS011;1904;50.076;8.660;2022-07-06T17:58:16;5.40;;;1.13;;
3777;SDS011;1904;50.076;8.660;2022-07-06T18:00:42;1.47;;;1.10;;
3777;SDS011;1904;50.076;8.660;2022-07-06T18:03:08;1.90;;;1.23;;
3777;SDS011;1904;50.076;8.660;2022-07-06T18:05:46;4.70;;;1.40;;
3777;SDS011;1904;50.076;8.660;2022-07-06T18:08:14;4.40;;;1.77;;
3777;SDS011;1904;50.076;8.660;2022-07-06T18:10:52;4.60;;;1.60;;
3777;SDS011;1904;50.076;8.660;2022-07-06T18:13:19;3.23;;;1.50;;
3777;SDS011;1904;50.076;8.660;2022-07-06T18:15:46;6.10;;;1.60;;
3777;SDS011;1904;50.076;8.660;2022-07-06T18:18:13;8.73;;;1.77;;
3777;SDS011;1904;50.076;8.660;2022-07-06T18:20:42;5.00;;;1.63;;
3777;SDS011;1904;50.076;8.660;2022-07-06T18:31:36;2.53;;;2.03;;
3777;SDS011;1904;50.076;8.660;2022-07-06T18:34:10;1.70;;;1.60;;
3777;SDS011;1904;50.076;8.660;2022-07-06T18:36:41;1.90;;;1.80;;
3777;SDS011;1904;50.076;8.660;2022-07-06T18:39:09;3.47;;;1.93;;
3777;SDS011;1904;50.076;8.660;2022-07-06T18:41:38;2.77;;;1.90;;
3777;SDS011;1904;50.076;8.660;2022-07-06T18:44:04;6.70;;;1.93;;
3777;SDS011;1904;50.076;8.660;2022-07-06T18:46:32;1.83;;;1.73;;
3777;SDS011;1904;50.076;8.660;2022-07-06T18:48:58;1.90;;;1.50;;
3777;SDS011;1904;50.076;8.660;2022-07-06T18:51:24;3.80;;;1.67;;
3777;SDS011;1904;50.076;8.660;2022-07-06T18:53:53;3.13;;;1.90;;
3777;SDS011;1904;50.076;8.660;2022-07-06T18:56:20;3.83;;;1.60;;
3777;SDS011;1904;50.076;8.660;2022-07-06T18:58:53;8.00;;;1.73;;
3777;SDS011;1904;50.076;8.660;2022-07-06T19:01:22;2.37;;;1.77;;
3777;SDS011;1904;50.076;8.660;2022-07-06T19:03:50;2.83;;;1.77;;
3777;SDS011;1904;50.076;8.660;2022-07-06T19:06:16;4.10;;;1.70;;
3777;SDS011;1904;50.076;8.660;2022-07-06T19:08:46;2.00;;;1.77;;
3777;SDS011;1904;50.076;8.660;2022-07-06T19:11:22;3.10;;;1.70;;
3777;SDS011;1904;50.076;8.660;2022-07-06T19:13:49;2.50;;;1.60;;
3777;SDS011;1904;50.076;8.660;2022-07-06T19:16:21;4.40;;;1.70;;
3777;SDS011;1904;50.076;8.660;2022-07-06T19:18:47;4.43;;;1.50;;
3777;SDS011;1904;50.076;8.660;2022-07-06T19:21:13;3.50;;;1.80;;
3777;SDS011;1904;50.076;8.660;2022-07-06T19:27:01;5.13;;;1.67;;
3777;SDS011;1904;50.076;8.660;2022-07-06T19:29:40;9.83;;;1.70;;
3777;SDS011;1904;50.076;8.660;2022-07-06T19:38:53;3.67;;;1.87;;
3777;SDS011;1904;50.076;8.660;2022-07-06T19:41:19;6.00;;;1.87;;
3777;SDS011;1904;50.076;8.660;2022-07-06T19:43:53;3.97;;;1.50;;
3777;SDS011;1904;50.076;8.660;2022-07-06T19:46:18;7.93;;;1.57;;
3777;SDS011;1904;50.076;8.660;2022-07-06T19:48:44;8.23;;;1.77;;
3777;SDS011;1904;50.076;8.660;2022-07-06T19:51:11;1.83;;;1.70;;
3777;SDS011;1904;50.076;8.660;2022-07-06T19:56:30;3.50;;;1.90;;
3777;SDS011;1904;50.076;8.660;2022-07-06T20:02:34;6.70;;;1.50;;
3777;SDS011;1904;50.076;8.660;2022-07-06T20:05:03;2.50;;;1.87;;
3777;SDS011;1904;50.076;8.660;2022-07-06T20:07:29;4.73;;;1.80;;
3777;SDS011;1904;50.076;8.660;2022-07-06T20:13:05;2.50;;;1.90;;
3777;SDS011;1904;50.076;8.660;2022-07-06T20:18:58;7.17;;;1.83;;
3777;SDS011;1904;50.076;8.660;2022-07-06T20:24:47;8.40;;;1.60;;
3777;SDS011;1904;50.076;8.660;2022-07-06T20:27:17;7.93;;;2.20;;
3777;SDS011;1904;50.076;8.660;2022-07-06T20:29:42;6.37;;;1.90;;
3777;SDS011;1904;50.076;8.660;2022-07-06T20:32:08;1.57;;;1.47;;
3777;SDS011;1904;50.076;8.660;2022-07-06T20:34:34;2.60;;;1.37;;
3777;SDS011;1904;50.076;8.660;2022-07-06T20:37:00;3.93;;;1.83;;
3777;SDS011;1904;50.076;8.660;2022-07-06T20:39:25;2.03;;;1.77;;
3777;SDS011;1904;50.076;8.660;2022-07-06T20:41:51;3.80;;;1.80;;
3777;SDS011;1904;50.076;8.660;2022-07-06T20:44:16;6.13;;;2.13;;
3777;SDS011;1904;50.076;8.660;2022-07-06T20:46:42;5.67;;;2.10;;
3777;SDS011;1904;50.076;8.660;2022-07-06T20:49:08;2.53;;;1.47;;
3777;SDS011;1904;50.076;8.660;2022-07-06T20:51:34;6.23;;;1.70;;
3777;SDS011;1904;50.076;8.660;2022-07-06T20:53:59;3.00;;;1.90;;
3777;SDS011;1904;50.076;8.660;2022-07-06T20:56:25;4.60;;;2.33;;
3777;SDS011;1904;50.076;8.660;2022-07-06T20:58:58;2.27;;;2.07;;
3777;SDS011;1904;50.076;8.660;2022-07-06T21:01:24;5.50;;;2.23;;
3777;SDS011;1904;50.076;8.660;2022-07-06T21:03:50;4.43;;;2.00;;
3777;SDS011;1904;50.076;8.660;2022-07-06T21:06:15;2.20;;;1.90;;
3777;SDS011;1904;50.076;8.660;2022-07-06T21:08:46;2.80;;;2.03;;
3777;SDS011;1904;50.076;8.660;2022-07-06T21:11:12;2.60;;;2.10;;
3777;SDS011;1904;50.076;8.660;2022-07-06T21:13:38;3.33;;;2.20;;
3777;SDS011;1904;50.076;8.660;2022-07-06T21:16:04;5.90;;;2.20;;
3777;SDS011;1904;50.076;8.660;2022-07-06T21:18:30;2.60;;;1.80;;